Terminal Aerodrome Forecast
Issued by NWS

Home | Current Version | Previous Version | Text Only | Print | Product List | Glossary On
Versions: 1 2 3 4 5 6 7 8 9 10 11 12 13 14 15
000
FTUS43 KLSX 020500
TAFCPS
TAF
KCPS 020520Z 0206/0306 16012KT P6SM BKN080 WS018/21045KT
     FM021400 21013G23KT 6SM -SHRA VCTS OVC040CB
     FM021700 22014G24KT P6SM SCT040 BKN120
     FM022100 23012G20KT 5SM -SHRA VCTS BKN040CB
     FM030300 36006KT P6SM -SHRA BKN030=

USA.gov is the U.S. government's official web portal to all federal, state and local government web resources and services.